Time;durP1;ratioP1;P1;durP2;ratioP2;P2;SDS_P1;SDS_P2;PMS_P1;PMS_P2;Temp;Humidity;BMP_temperature;BMP_pressure;BME280_temperature;BME280_humidity;BME280_pressure;Samples;Min_cycle;Max_cycle;Signal;HPM_P1;HPM_P2
2022/06/12 00:00:27;;;;;;;17.75;8.33;;;;;;;17.98;71.55;99658.33;1731400;82;21003;-50
2022/06/12 00:02:54;;;;;;;16.65;7.87;;;;;;;17.96;71.77;99656.28;1731290;81;20960;-49
2022/06/12 00:05:24;;;;;;;17.55;7.87;;;;;;;17.95;71.32;99657.23;1731374;83;20998;-55
2022/06/12 00:07:50;;;;;;;16.25;7.65;;;;;;;17.96;71.56;99656.77;1731430;82;20959;-58
2022/06/12 00:10:17;;;;;;;16.73;8.10;;;;;;;17.95;71.57;99657.23;1731319;82;21465;-50
2022/06/12 00:12:45;;;;;;;16.93;8.43;;;;;;;17.95;71.85;99657.23;1731630;83;21532;-50
2022/06/12 00:15:15;;;;;;;13.90;7.80;;;;;;;17.95;72.12;99662.55;1731404;82;20979;-50
2022/06/12 00:17:43;;;;;;;11.12;6.45;;;;;;;17.93;72.15;99664.50;1731316;82;21567;-51
2022/06/12 00:20:13;;;;;;;12.47;7.40;;;;;;;17.92;71.94;99659.30;1731193;82;21055;-56
2022/06/12 00:22:40;;;;;;;15.28;7.00;;;;;;;17.91;72.30;99659.79;1731222;83;21116;-55
2022/06/12 00:25:09;;;;;;;11.43;7.03;;;;;;;17.88;72.02;99652.05;1731558;82;21488;-51
2022/06/12 00:27:40;;;;;;;12.75;7.10;;;;;;;17.89;71.53;99656.41;1731243;83;21545;-55
2022/06/12 00:30:10;;;;;;;9.65;6.40;;;;;;;17.89;71.62;99656.41;1731282;82;21418;-51
2022/06/12 00:32:37;;;;;;;12.53;6.60;;;;;;;17.87;72.06;99654.36;1731223;82;21516;-56
2022/06/12 00:35:07;;;;;;;12.15;7.20;;;;;;;17.86;72.41;99649.16;1731380;82;20987;-55
2022/06/12 00:37:33;;;;;;;9.00;6.67;;;;;;;17.82;72.68;99656.01;1731177;82;20999;-50
2022/06/12 00:39:59;;;;;;;10.15;6.45;;;;;;;17.81;72.14;99649.51;1731398;82;20991;-54
2022/06/12 00:42:39;;;;;;;16.87;7.12;;;;;;;17.79;72.37;99650.09;1731256;82;20955;-55
2022/06/12 00:45:33;;;;;;;13.38;6.80;;;;;;;17.77;72.47;99650.23;1731216;82;20956;-52
2022/06/12 00:48:11;;;;;;;12.40;6.97;;;;;;;17.73;72.47;99651.42;1725387;82;21051;-54
2022/06/12 00:50:42;;;;;;;17.02;7.22;;;;;;;17.69;72.45;99654.47;1717639;83;21027;-54
2022/06/12 00:53:13;;;;;;;19.57;7.72;;;;;;;17.67;72.17;99655.08;1718368;82;20987;-51
2022/06/12 00:56:00;;;;;;;11.20;6.78;;;;;;;17.65;72.69;99658.69;1718266;82;20979;-50
2022/06/12 00:58:31;;;;;;;14.95;7.45;;;;;;;17.64;72.40;99651.69;1718498;82;21428;-52
2022/06/12 01:00:57;;;;;;;13.90;7.03;;;;;;;17.64;73.18;99650.36;1718359;82;21051;-51
2022/06/12 01:03:25;;;;;;;12.13;6.50;;;;;;;17.65;73.05;99645.39;1718306;82;20984;-55
2022/06/12 01:08:35;;;;;;;10.75;6.20;;;;;;;17.67;73.38;99644.44;1718393;83;21007;-54
2022/06/12 01:11:07;;;;;;;13.48;6.75;;;;;;;17.68;73.25;99640.30;1718576;82;20980;-53
2022/06/12 01:13:41;;;;;;;28.77;7.60;;;;;;;17.67;73.07;99645.27;1718336;82;20991;-58
2022/06/12 01:16:14;;;;;;;14.68;7.70;;;;;;;17.68;72.98;99643.45;1718396;82;21485;-58
2022/06/12 01:18:51;;;;;;;21.02;7.35;;;;;;;17.69;73.62;99638.51;1718336;82;21509;-50
2022/06/12 01:21:53;;;;;;;13.80;6.50;;;;;;;17.71;73.27;99636.08;1718539;83;21474;-52
2022/06/12 01:24:58;;;;;;;14.55;7.37;;;;;;;17.73;73.33;99633.30;1717997;82;20984;-57
2022/06/12 01:28:09;;;;;;;15.65;7.58;;;;;;;17.74;72.97;99632.34;1718452;82;20996;-54
2022/06/12 01:30:40;;;;;;;17.95;7.53;;;;;;;17.72;72.98;99632.46;1718298;83;20992;-57
2022/06/12 01:33:18;;;;;;;16.77;6.87;;;;;;;17.73;72.91;99623.50;1716717;83;21063;-55
2022/06/12 01:36:16;;;;;;;12.07;6.70;;;;;;;17.72;72.77;99623.61;1719446;83;20992;-57
2022/06/12 01:39:06;;;;;;;12.58;6.55;;;;;;;17.70;72.23;99626.42;1717781;82;20976;-54
2022/06/12 01:41:40;;;;;;;10.58;6.45;;;;;;;17.70;72.09;99627.75;1718270;82;21516;-55
2022/06/12 01:44:29;;;;;;;10.75;7.12;;;;;;;17.70;71.97;99628.21;1714554;83;21517;-55
2022/06/12 01:47:18;;;;;;;16.10;6.72;;;;;;;17.71;71.21;99625.92;1717932;82;20980;-52
2022/06/12 01:49:56;;;;;;;11.93;6.58;;;;;;;17.69;70.91;99625.21;1718333;82;20984;-48
2022/06/12 01:53:05;;;;;;;11.15;6.95;;;;;;;17.67;70.54;99629.31;1717538;82;20983;-54
2022/06/12 01:55:48;;;;;;;17.10;7.28;;;;;;;17.68;70.57;99623.50;1748033;82;21020;-55
2022/06/12 01:58:34;;;;;;;12.95;7.17;;;;;;;17.62;70.39;99628.34;1747992;81;20988;-50
2022/06/12 02:01:12;;;;;;;14.33;7.05;;;;;;;17.59;70.76;99624.61;1748053;81;21015;-56
2022/06/12 02:03:49;;;;;;;11.60;7.25;;;;;;;17.58;70.77;99632.21;1744937;81;20960;-54
2022/06/12 02:06:40;;;;;;;12.88;7.42;;;;;;;17.56;70.74;99628.83;1748111;81;20968;-56
2022/06/12 02:09:27;;;;;;;15.10;7.15;;;;;;;17.53;70.46;99627.73;1748092;81;21502;-53
2022/06/12 02:14:57;;;;;;;13.13;7.17;;;;;;;17.53;70.55;99630.89;1748111;82;20964;-53
2022/06/12 02:17:26;;;;;;;;;;;;;;;17.52;70.72;99627.86;1750764;81;20957;-51
2022/06/12 02:19:54;;;;;;;13.30;7.90;;;;;;;17.46;71.67;99623.41;1747963;81;20128;-50
2022/06/12 02:22:25;;;;;;;;;;;;;;;17.48;70.78;99624.59;1750624;81;21509;-59
2022/06/12 02:25:04;;;;;;;15.95;8.00;;;;;;;17.43;71.94;99620.14;1748086;81;20406;-54
2022/06/12 02:27:35;;;;;;;11.65;7.25;;;;;;;17.44;71.44;99617.83;1748116;81;20960;-57
2022/06/12 02:30:12;;;;;;;15.30;7.58;;;;;;;17.41;71.51;99618.93;1747992;81;21584;-53
2022/06/12 02:32:47;;;;;;;7.95;6.40;;;;;;;17.42;71.48;99617.11;1748235;82;20984;-57
2022/06/12 02:35:39;;;;;;;13.22;7.25;;;;;;;17.41;71.75;99620.75;1748047;81;21003;-56
2022/06/12 02:38:09;;;;;;;10.00;6.83;;;;;;;17.42;71.39;99617.95;1747892;81;21469;-52
2022/06/12 02:43:32;;;;;;;10.43;6.45;;;;;;;17.48;71.85;99613.95;1856878;77;22509;-49
2022/06/12 02:46:15;;;;;;;13.58;6.90;;;;;;;17.46;71.53;99619.87;1825587;78;21047;-53
2022/06/12 02:48:41;;;;;;;12.60;7.40;;;;;;;17.47;71.16;99620.26;1825553;78;20947;-52
2022/06/12 02:51:29;;;;;;;9.88;6.87;;;;;;;17.46;70.57;99615.44;1825636;78;20974;-54
2022/06/12 02:54:15;;;;;;;11.65;6.85;;;;;;;17.48;71.05;99617.94;1825048;78;21025;-51
2022/06/12 02:56:48;;;;;;;11.50;6.65;;;;;;;17.44;70.89;99620.48;1825708;78;21502;-53
2022/06/12 02:59:52;;;;;;;9.95;6.70;;;;;;;17.45;71.10;99619.53;1825576;78;20986;-52
2022/06/12 03:02:30;;;;;;;10.98;6.78;;;;;;;17.45;70.56;99620.86;1825353;78;20979;-54
2022/06/12 03:05:01;;;;;;;12.53;7.08;;;;;;;17.46;70.58;99617.22;1823684;78;20983;-48
2022/06/12 03:07:29;;;;;;;13.68;7.30;;;;;;;17.47;70.46;99617.59;1825522;78;20971;-52
2022/06/12 03:09:59;;;;;;;14.47;7.15;;;;;;;17.48;70.61;99616.61;1825541;78;20955;-54
2022/06/12 03:12:28;;;;;;;13.13;7.20;;;;;;;17.50;70.90;99619.16;1825664;78;20990;-53
2022/06/12 03:14:55;;;;;;;10.03;6.90;;;;;;;17.52;71.40;99621.20;1825481;78;21436;-56
2022/06/12 03:17:21;;;;;;;;;;;;;;;17.54;71.56;99617.48;1828288;78;21118;-50
2022/06/12 03:19:51;;;;;;;9.23;6.22;;;;;;;17.55;72.20;99615.16;1825501;78;20105;-53
2022/06/12 03:22:45;;;;;;;12.10;6.55;;;;;;;17.58;71.89;99620.25;1825599;78;21511;-52
2022/06/12 03:25:37;;;;;;;9.88;6.53;;;;;;;17.60;71.34;99616.98;1825277;78;21026;-51
2022/06/12 03:28:21;;;;;;;10.32;6.25;;;;;;;17.64;71.42;99612.27;1823488;78;21452;-48
2022/06/12 03:31:01;;;;;;;13.95;6.87;;;;;;;17.67;70.81;99610.70;1825662;78;21017;-57
2022/06/12 03:33:41;;;;;;;12.18;6.42;;;;;;;17.72;70.96;99606.33;1825324;78;21010;-50
2022/06/12 03:36:21;;;;;;;10.08;6.47;;;;;;;17.74;70.91;99609.24;1825396;78;20978;-57
2022/06/12 03:39:09;;;;;;;13.22;6.30;;;;;;;17.76;70.74;99606.46;1825190;78;21029;-47
2022/06/12 03:41:49;;;;;;;10.25;5.60;;;;;;;17.77;70.78;99605.48;1825782;78;20991;-56
2022/06/12 03:44:26;;;;;;;10.05;5.80;;;;;;;17.78;70.63;99601.86;1829070;78;20985;-57
2022/06/12 03:46:57;;;;;;;19.95;6.28;;;;;;;17.78;70.86;99597.87;1829059;78;21017;-54
2022/06/12 03:49:38;;;;;;;11.40;6.10;;;;;;;17.80;70.31;99595.93;1828928;78;21460;-55
2022/06/12 03:52:21;;;;;;;9.08;5.55;;;;;;;17.79;69.54;99595.55;1829082;78;21456;-54
2022/06/12 03:54:55;;;;;;;11.80;5.78;;;;;;;17.80;69.43;99600.76;1828437;78;20986;-53
2022/06/12 03:57:52;;;;;;;11.97;5.78;;;;;;;17.79;69.61;99596.88;1828018;78;20970;-55
2022/06/12 04:00:35;;;;;;;14.43;5.67;;;;;;;17.79;69.65;99604.87;1828540;78;20990;-53
2022/06/12 04:03:12;;;;;;;8.65;5.58;;;;;;;17.76;69.33;99610.45;1828365;78;21487;-50
2022/06/12 04:05:58;;;;;;;11.70;4.97;;;;;;;17.75;68.77;99613.58;1828455;78;21532;-53
2022/06/12 04:08:35;;;;;;;12.37;4.95;;;;;;;17.78;68.98;99615.16;1828373;78;20982;-52
2022/06/12 04:11:02;;;;;;;9.80;5.00;;;;;;;17.80;68.65;99618.55;1823257;78;20978;-52
2022/06/12 04:13:29;;;;;;;11.68;5.30;;;;;;;17.83;68.37;99616.97;1828513;78;20976;-54
2022/06/12 04:16:00;;;;;;;11.75;4.55;;;;;;;17.87;68.55;99619.77;1828553;78;21021;-53
2022/06/12 04:18:28;;;;;;;13.65;4.87;;;;;;;17.90;68.91;99618.20;1828291;78;21483;-55
2022/06/12 04:21:02;;;;;;;11.57;5.25;;;;;;;17.92;68.20;99617.59;1828581;78;21022;-53
2022/06/12 04:23:54;;;;;;;8.98;4.78;;;;;;;17.95;68.06;99620.48;1828393;78;20959;-49
2022/06/12 04:26:37;;;;;;;7.33;4.53;;;;;;;18.00;67.82;99623.62;1828119;78;21483;-54
2022/06/12 04:29:14;;;;;;;10.48;5.90;;;;;;;18.05;67.99;99620.11;1828374;78;20986;-52
2022/06/12 04:31:47;;;;;;;7.78;4.95;;;;;;;18.10;67.47;99626.37;1828523;78;20983;-54
2022/06/12 04:34:30;;;;;;;14.70;5.20;;;;;;;18.17;67.57;99626.23;1828405;78;20971;-53
2022/06/12 04:37:03;;;;;;;8.83;5.53;;;;;;;18.24;67.35;99624.76;1828429;78;21023;-51
2022/06/12 04:39:35;;;;;;;9.60;4.33;;;;;;;18.35;66.96;99622.55;1827217;78;20978;-52
2022/06/12 04:42:00;;;;;;;6.97;4.08;;;;;;;18.44;66.90;99620.95;1828246;78;21006;-52
2022/06/12 04:44:27;;;;;;;7.90;4.35;;;;;;;18.53;66.58;99621.02;1828536;78;21487;-56
2022/06/12 04:46:55;;;;;;;8.48;4.10;;;;;;;18.63;65.74;99625.11;1828360;78;21394;-57
2022/06/12 04:49:26;;;;;;;6.37;4.40;;;;;;;18.74;65.85;99624.21;1828364;78;20982;-50
2022/06/12 04:51:55;;;;;;;6.40;3.95;;;;;;;18.75;64.34;99625.88;1828508;78;20983;-52
2022/06/12 04:54:22;;;;;;;8.95;3.50;;;;;;;18.85;64.42;99630.84;1828396;78;20974;-53
2022/06/12 04:56:49;;;;;;;6.90;3.50;;;;;;;18.95;64.17;99626.89;1828426;78;21640;-54
2022/06/12 04:59:18;;;;;;;6.75;4.12;;;;;;;19.02;63.62;99625.40;1828710;78;21488;-53
2022/06/12 05:01:45;;;;;;;7.72;3.80;;;;;;;19.08;63.50;99629.36;1828357;78;20978;-51
2022/06/12 05:04:11;;;;;;;8.58;3.90;;;;;;;19.14;63.09;99634.19;1828615;78;20989;-49
2022/06/12 05:06:39;;;;;;;7.30;3.98;;;;;;;19.23;63.46;99634.73;1828607;77;20970;-54
2022/06/12 05:09:06;;;;;;;7.92;3.87;;;;;;;19.27;62.51;99633.97;1828543;78;21037;-52
2022/06/12 05:11:32;;;;;;;5.50;3.47;;;;;;;19.30;62.33;99631.02;1828587;78;20978;-51
2022/06/12 05:13:58;;;;;;;6.05;3.25;;;;;;;19.40;62.52;99634.59;1828734;78;20955;-51
2022/06/12 05:16:29;;;;;;;6.92;3.17;;;;;;;19.46;62.49;99631.38;1828306;78;20978;-53
2022/06/12 05:18:55;;;;;;;9.68;3.75;;;;;;;19.52;62.39;99627.36;1828553;78;20975;-51
2022/06/12 05:21:23;;;;;;;7.05;3.15;;;;;;;19.59;62.24;99631.66;1828332;78;21060;-57
2022/06/12 05:23:49;;;;;;;7.95;3.50;;;;;;;19.63;61.48;99627.73;1828388;78;21459;-49
2022/06/12 05:26:17;;;;;;;9.23;3.27;;;;;;;19.68;61.13;99627.70;1828362;78;20955;-52
2022/06/12 05:28:44;;;;;;;8.75;3.00;;;;;;;19.74;60.88;99625.85;1828377;78;21444;-49
2022/06/12 05:31:10;;;;;;;4.00;2.77;;;;;;;19.81;60.13;99627.50;1828663;78;21135;-56
2022/06/12 05:33:36;;;;;;;7.47;2.70;;;;;;;19.84;59.30;99624.53;1828360;77;21655;-52
2022/06/12 05:36:04;;;;;;;5.43;3.37;;;;;;;19.94;59.89;99625.91;1828626;78;21491;-55
2022/06/12 05:38:29;;;;;;;4.40;3.08;;;;;;;20.02;60.01;99627.39;1828350;78;20947;-53
2022/06/12 05:40:55;;;;;;;5.28;2.95;;;;;;;20.08;59.40;99624.66;1828459;78;20979;-51
2022/06/12 05:43:21;;;;;;;9.15;3.15;;;;;;;20.16;59.59;99628.84;1828245;78;21508;-48
2022/06/12 05:45:48;;;;;;;5.58;3.27;;;;;;;20.25;59.94;99628.00;1828334;78;21000;-51
2022/06/12 05:48:18;;;;;;;5.67;2.50;;;;;;;20.33;59.92;99617.95;1828428;78;20959;-52
2022/06/12 05:50:57;;;;;;;5.20;2.80;;;;;;;20.41;59.08;99623.45;1828513;78;20982;-57
2022/06/12 05:53:26;;;;;;;5.83;3.15;;;;;;;20.51;59.10;99624.28;1828346;78;21491;-53
2022/06/12 05:55:54;;;;;;;4.53;2.85;;;;;;;20.61;59.02;99628.81;1828424;78;21018;-54
2022/06/12 05:58:22;;;;;;;9.23;3.05;;;;;;;20.64;57.55;99625.36;1828442;78;21033;-52
2022/06/12 06:00:49;;;;;;;5.85;2.92;;;;;;;20.73;57.67;99635.70;1828391;78;21417;-49
2022/06/12 06:03:15;;;;;;;5.22;2.83;;;;;;;20.82;57.99;99627.33;1828488;78;21448;-58
2022/06/12 06:05:44;;;;;;;7.22;2.52;;;;;;;20.90;57.76;99622.97;1828307;78;20970;-54
2022/06/12 06:08:10;;;;;;;4.50;2.80;;;;;;;20.97;57.78;99624.55;1828307;78;21111;-52
2022/06/12 06:10:36;;;;;;;3.83;2.65;;;;;;;21.02;57.42;99628.98;1828645;78;21605;-51
2022/06/12 06:13:02;;;;;;;6.20;2.80;;;;;;;20.99;56.61;99625.75;1828351;78;20987;-53
2022/06/12 06:15:28;;;;;;;4.22;2.50;;;;;;;21.03;56.98;99632.02;1828550;78;20978;-50
2022/06/12 06:17:54;;;;;;;4.62;2.80;;;;;;;21.03;56.71;99636.03;1828318;78;21033;-54
2022/06/12 06:20:25;;;;;;;4.80;2.83;;;;;;;21.01;56.14;99640.68;1828331;78;20990;-51
2022/06/12 06:22:52;;;;;;;6.35;2.67;;;;;;;20.97;56.26;99640.59;1828104;78;20989;-51
2022/06/12 06:25:20;;;;;;;6.95;3.25;;;;;;;20.95;56.30;99637.22;1828384;78;20990;-56
2022/06/12 06:27:46;;;;;;;5.90;2.90;;;;;;;20.93;56.31;99642.37;1828322;78;20955;-55
2022/06/12 06:30:14;;;;;;;4.05;2.90;;;;;;;20.99;56.78;99638.65;1828378;78;21503;-53
2022/06/12 06:32:42;;;;;;;5.30;2.83;;;;;;;21.03;56.46;99633.86;1828504;78;21021;-53
2022/06/12 06:35:09;;;;;;;4.62;2.77;;;;;;;21.05;56.55;99642.08;1828331;78;20947;-56
2022/06/12 06:37:36;;;;;;;3.27;2.77;;;;;;;21.09;56.39;99644.80;1828077;78;21016;-54
2022/06/12 06:40:04;;;;;;;5.55;2.58;;;;;;;21.08;55.57;99637.78;1827319;78;21122;-56
2022/06/12 06:42:30;;;;;;;4.80;2.70;;;;;;;21.07;55.16;99639.26;1828255;77;21018;-52
2022/06/12 06:47:40;;;;;;;3.45;2.80;;;;;;;21.14;56.02;99636.83;1828312;78;21033;-54
2022/06/12 06:50:10;;;;;;;6.78;2.75;;;;;;;21.22;55.91;99642.31;1828323;77;21547;-59
2022/06/12 06:52:36;;;;;;;4.97;2.50;;;;;;;21.28;55.46;99638.58;1828316;78;21348;-53
2022/06/12 06:55:03;;;;;;;5.83;2.70;;;;;;;21.36;55.38;99636.50;1828325;77;21033;-55
2022/06/12 06:57:29;;;;;;;6.65;2.77;;;;;;;21.41;54.07;99646.28;1828451;78;20978;-57
2022/06/12 06:59:55;;;;;;;7.87;2.77;;;;;;;21.53;54.76;99644.28;1828360;78;21467;-56
2022/06/12 07:02:21;;;;;;;5.62;2.80;;;;;;;21.65;54.98;99644.95;1828326;78;21507;-54
2022/06/12 07:04:47;;;;;;;4.92;2.40;;;;;;;21.76;54.79;99639.41;1828246;78;21421;-53
2022/06/12 07:07:13;;;;;;;6.12;2.90;;;;;;;21.85;54.47;99639.85;1828294;78;20973;-57
2022/06/12 07:09:40;;;;;;;9.45;3.00;;;;;;;21.98;54.30;99631.97;1828260;78;20951;-54
2022/06/12 07:12:08;;;;;;;3.75;2.55;;;;;;;22.07;53.48;99628.39;1828289;78;21397;-51
2022/06/12 07:14:34;;;;;;;3.33;2.60;;;;;;;22.22;54.32;99625.52;1828376;78;21459;-54
2022/06/12 07:17:00;;;;;;;4.37;2.30;;;;;;;22.38;53.85;99620.86;1828304;77;20955;-46
2022/06/12 07:19:27;;;;;;;4.83;2.85;;;;;;;22.53;53.14;99622.50;1828524;78;21018;-56
2022/06/12 07:21:54;;;;;;;5.80;2.20;;;;;;;22.65;52.65;99622.26;1828433;78;21145;-51
2022/06/12 07:24:20;;;;;;;2.92;2.10;;;;;;;22.78;50.92;99622.73;1828519;78;20970;-48
2022/06/12 07:26:47;;;;;;;3.95;2.17;;;;;;;22.89;51.45;99627.83;1828389;78;21527;-55
2022/06/12 07:29:17;;;;;;;3.35;2.62;;;;;;;22.90;50.29;99622.83;1828382;78;20974;-55
2022/06/12 07:31:45;;;;;;;4.40;2.60;;;;;;;22.88;50.80;99626.64;1828473;78;20978;-53
2022/06/12 07:34:16;;;;;;;3.95;2.42;;;;;;;22.83;50.61;99631.15;1828447;78;21029;-59
2022/06/12 07:36:46;;;;;;;3.08;2.22;;;;;;;22.85;50.53;99634.52;1828454;78;20951;-55
2022/06/12 07:39:23;;;;;;;5.55;2.70;;;;;;;22.88;50.45;99635.52;1828524;78;20970;-54
2022/06/12 07:41:51;;;;;;;5.25;2.40;;;;;;;22.96;50.36;99629.41;1828565;78;20947;-54
2022/06/12 07:44:21;;;;;;;4.33;2.50;;;;;;;23.05;50.41;99626.28;1828295;78;21006;-53
2022/06/12 07:46:49;;;;;;;4.00;2.70;;;;;;;23.12;50.56;99630.02;1828655;78;20986;-50
2022/06/12 07:49:19;;;;;;;6.12;2.65;;;;;;;23.17;50.18;99630.40;1828406;78;21021;-58
2022/06/12 07:51:46;;;;;;;5.03;2.30;;;;;;;23.21;49.54;99625.05;1828429;78;21021;-50
2022/06/12 07:54:12;;;;;;;3.65;2.60;;;;;;;23.25;49.26;99628.26;1828569;78;20978;-56
2022/06/12 07:56:38;;;;;;;5.97;2.35;;;;;;;23.31;49.49;99622.28;1828524;78;20991;-57
2022/06/12 07:59:07;;;;;;;4.40;2.50;;;;;;;23.35;49.99;99619.61;1828371;78;20982;-50
2022/06/12 08:01:33;;;;;;;4.00;2.85;;;;;;;23.42;49.64;99619.31;1828299;78;20935;-49
2022/06/12 08:03:59;;;;;;;5.72;2.22;;;;;;;23.57;49.49;99620.89;1828554;78;20989;-51
2022/06/12 08:06:26;;;;;;;3.15;2.40;;;;;;;23.69;49.66;99615.58;1828405;78;20990;-52
2022/06/12 08:08:52;;;;;;;;;;;;;;;23.74;48.77;99622.66;1831257;78;20971;-48
2022/06/12 08:11:21;;;;;;;15.40;3.33;;;;;;;23.79;49.28;99615.44;1828685;78;20291;-54
2022/06/12 08:13:47;;;;;;;4.53;2.70;;;;;;;23.92;49.32;99613.67;1828350;77;20982;-55
2022/06/12 08:16:13;;;;;;;4.40;2.33;;;;;;;23.85;48.39;99616.66;1828567;78;20943;-51
2022/06/12 08:18:40;;;;;;;5.00;2.45;;;;;;;23.87;48.17;99617.38;1828417;78;21142;-53
2022/06/12 08:21:10;;;;;;;4.60;2.62;;;;;;;24.01;48.27;99618.06;1828684;78;20975;-51
2022/06/12 08:23:44;;;;;;;7.35;3.15;;;;;;;24.14;48.39;99618.45;1828570;78;21501;-55
2022/06/12 08:26:24;;;;;;;4.53;2.50;;;;;;;24.24;47.66;99617.45;1822904;78;21023;-51
2022/06/12 08:29:04;;;;;;;3.55;2.47;;;;;;;24.25;47.59;99615.95;1828393;78;21483;-51
2022/06/12 08:31:47;;;;;;;4.70;2.47;;;;;;;24.22;46.72;99619.47;1827195;78;21020;-51
2022/06/12 08:34:24;;;;;;;3.27;2.35;;;;;;;24.21;47.31;99620.47;1828450;78;20943;-50
2022/06/12 08:36:57;;;;;;;3.40;2.58;;;;;;;24.27;47.35;99618.48;1828593;78;21547;-51
2022/06/12 08:39:24;;;;;;;6.47;2.47;;;;;;;24.47;47.64;99610.44;1828468;78;20939;-55
2022/06/12 08:42:14;;;;;;;4.05;2.47;;;;;;;24.55;46.26;99620.37;1828496;78;20943;-50
2022/06/12 08:44:58;;;;;;;2.58;2.37;;;;;;;24.59;46.33;99612.81;1825236;77;21046;-56
2022/06/12 08:47:44;;;;;;;5.40;2.20;;;;;;;24.64;45.95;99612.65;1824944;78;21010;-56
2022/06/12 08:50:17;;;;;;;3.67;2.47;;;;;;;24.60;46.19;99616.69;1825192;78;21526;-54
2022/06/12 08:53:32;;;;;;;2.98;2.12;;;;;;;24.65;46.77;99616.17;1825020;78;20951;-52
2022/06/12 08:56:21;;;;;;;5.85;2.33;;;;;;;24.75;45.69;99614.67;1824941;78;21474;-56
2022/06/12 08:59:07;;;;;;;4.35;2.52;;;;;;;25.01;45.36;99603.71;1824880;78;21130;-50
2022/06/12 09:01:41;;;;;;;7.87;2.20;;;;;;;25.31;45.15;99608.08;1825020;78;21038;-53
2022/06/12 09:04:04;;;;;;;5.87;2.15;;;;;;;25.47;44.59;99610.20;1824708;78;21910;-54
2022/06/12 09:06:49;;;;;;;7.20;2.90;;;;;;;25.61;43.89;99609.13;1825126;78;20986;-48
2022/06/12 09:09:52;;;;;;;6.25;2.17;;;;;;;25.73;44.73;99602.87;1824875;78;20955;-53
2022/06/12 09:12:24;;;;;;;5.58;2.27;;;;;;;25.90;42.85;99605.80;1822782;78;21018;-51
2022/06/12 09:15:01;;;;;;;4.22;2.02;;;;;;;26.21;42.73;99603.63;1824754;78;20994;-53
2022/06/12 09:17:38;;;;;;;4.67;1.85;;;;;;;26.48;42.29;99601.42;1824917;78;20983;-56
2022/06/12 09:20:45;;;;;;;6.15;1.92;;;;;;;26.56;42.39;99600.86;1824939;78;20987;-50
2022/06/12 09:23:31;;;;;;;2.30;1.80;;;;;;;26.50;41.43;99604.27;1824802;78;20959;-54
2022/06/12 09:26:30;;;;;;;3.55;1.72;;;;;;;26.31;41.43;99605.59;1825166;78;20994;-53
2022/06/12 09:29:17;;;;;;;5.05;2.15;;;;;;;26.15;39.42;99608.40;1824852;78;21500;-54
2022/06/12 09:32:32;;;;;;;4.17;1.65;;;;;;;25.80;40.16;99601.16;1824972;78;21025;-57
2022/06/12 09:35:30;;;;;;;11.63;2.47;;;;;;;25.69;41.21;99599.69;1824796;78;21029;-56
2022/06/12 09:38:19;;;;;;;7.53;5.00;;;;;;;25.61;41.67;99592.97;1824902;78;20989;-51
2022/06/12 09:41:19;;;;;;;4.22;2.00;;;;;;;25.72;41.39;99591.23;1824898;78;21468;-50
2022/06/12 09:44:15;;;;;;;6.47;2.12;;;;;;;26.22;41.96;99589.15;1826031;78;21002;-54
2022/06/12 09:47:01;;;;;;;4.55;2.10;;;;;;;27.02;40.90;99587.00;1828318;78;21106;-56
